Logan - 24 Hour Table
Date & TimeSolar
Radiation
(W/m²)
Wind
Speed
(mph)
Wind
Direction
(degrees)
Air
Temperature
(°F)
Relative
Humidity
(%)
Precipitation
(inches)
Barometric
Pressure
(inHg)
2017/02/25 08:00 17 1.1 12 15.5 93 0.00 30.06
2017/02/25 07:00 0 0.9 67 13.7 95 0.00 30.06
2017/02/25 06:00 0 0.7 91 14.5 96 0.00 30.06
2017/02/25 05:00 0 1.0 35 15.1 96 0.00 30.08
2017/02/25 04:00 0 1.7 44 16.8 92 0.00 30.09
2017/02/25 03:00 0 1.4 188 16.3 89 0.00 30.10
2017/02/25 02:00 0 0.8 63 16.4 88 0.00 30.11
2017/02/25 01:00 0 1.6 194 15.2 86 0.00 30.11
2017/02/25 00:00 0 3.3 185 15.5 85 0.00 30.11
2017/02/24 23:00 0 4.2 200 15.9 84 0.00 30.12
2017/02/24 22:00 0 3.2 258 17.3 86 0.00 30.12
2017/02/24 21:00 0 2.8 219 19.2 94 0.00 30.12
2017/02/24 20:00 0 2.4 15 22.8 87 0.00 30.11
2017/02/24 19:00 3 2.6 354 24.4 80 0.00 30.10
2017/02/24 18:00 58 2.6 25 25.9 76 0.00 30.09
2017/02/24 17:00 298 4.1 56 26.8 69 0.00 30.09
2017/02/24 16:00 395 5.9 341 27.4 71 0.00 30.08
2017/02/24 15:00 391 8.4 320 26.9 77 0.00 30.07
2017/02/24 14:00 296 4.0 350 26.8 82 0.00 30.06
2017/02/24 13:00 314 3.9 36 25.4 78 0.00 30.05
2017/02/24 12:00 217 4.6 18 24.6 90 0.01 30.05
2017/02/24 11:00 90 3.9 6 23.9 95 0.01 30.04
2017/02/24 10:00 81 3.7 300 23.6 93 0.11 30.03
2017/02/24 09:00 43 2.3 291 23.2 93 0.00 30.01